Time;durP1;ratioP1;P1;durP2;ratioP2;P2;SDS_P1;SDS_P2;PMS_P1;PMS_P2;Temp;Humidity;BMP_temperature;BMP_pressure;BME280_temperature;BME280_humidity;BME280_pressure;Samples;Min_cycle;Max_cycle;Signal;HPM_P1;HPM_P2
2022/07/05 00:01:43;;;;;;;3.73;2.03;;;;;;;;;;4970413;28;20233;-70
2022/07/05 00:04:08;;;;;;;2.97;2.30;;;;;;;;;;4950089;28;20214;-71
2022/07/05 00:07:17;;;;;;;2.13;1.92;;;;;;;;;;5026028;28;20255;-73
2022/07/05 00:09:22;;;;;;;5.35;2.08;;;;;;;;;;4962476;28;20210;-71
2022/07/05 00:11:52;;;;;;;4.32;2.55;;;;;;;;;;4965381;28;20849;-71
2022/07/05 00:14:17;;;;;;;3.95;2.10;;;;;;;;;;4974498;28;20268;-74
2022/07/05 00:16:45;;;;;;;5.57;1.90;;;;;;;;;;4969907;28;20696;-73
2022/07/05 00:19:10;;;;;;;5.13;2.13;;;;;;;;;;4975953;28;20282;-73
2022/07/05 00:21:41;;;;;;;4.90;2.60;;;;;;;;;;4960010;28;20317;-72
2022/07/05 00:24:09;;;;;;;3.58;2.15;;;;;;;;;;5042078;28;20213;-71
2022/07/05 00:26:35;;;;;;;3.92;2.47;;;;;;;;;;5007643;28;20229;-73
2022/07/05 00:29:00;;;;;;;4.30;2.42;;;;;;;;;;4960827;28;20306;-73
2022/07/05 00:31:26;;;;;;;4.50;2.63;;;;;;;;;;4969634;28;20645;-72
2022/07/05 00:33:51;;;;;;;3.22;2.35;;;;;;;;;;4950442;28;20224;-71
2022/07/05 00:36:20;;;;;;;3.75;2.45;;;;;;;;;;4972453;28;20748;-73
2022/07/05 00:38:47;;;;;;;5.60;2.47;;;;;;;;;;4944334;28;20237;-71
2022/07/05 00:41:13;;;;;;;3.33;2.45;;;;;;;;;;5010723;28;20229;-72
2022/07/05 00:43:56;;;;;;;3.95;2.55;;;;;;;;;;4977718;28;20240;-74
2022/07/05 00:46:22;;;;;;;3.80;2.50;;;;;;;;;;4972715;28;20696;-74
2022/07/05 00:48:48;;;;;;;4.07;2.60;;;;;;;;;;5023181;28;20222;-74
2022/07/05 00:51:21;;;;;;;5.63;2.27;;;;;;;;;;4955764;28;20229;-72
2022/07/05 00:53:46;;;;;;;4.55;2.50;;;;;;;;;;5015808;28;20226;-73
2022/07/05 00:56:12;;;;;;;3.40;2.30;;;;;;;;;;4926629;28;20225;-72
2022/07/05 00:58:38;;;;;;;3.42;2.45;;;;;;;;;;4962693;28;20726;-74
2022/07/05 01:01:06;;;;;;;3.13;2.23;;;;;;;;;;4958984;28;20234;-73
2022/07/05 01:03:39;;;;;;;4.83;2.30;;;;;;;;;;4959634;28;20237;-75
2022/07/05 01:06:08;;;;;;;4.00;2.60;;;;;;;;;;4971731;28;20223;-71
2022/07/05 01:08:34;;;;;;;3.40;2.60;;;;;;;;;;5032388;28;20933;-74
2022/07/05 01:11:01;;;;;;;3.13;2.50;;;;;;;;;;4961265;28;20761;-71
2022/07/05 01:13:29;;;;;;;3.00;2.55;;;;;;;;;;4967444;28;20284;-72
2022/07/05 01:15:55;;;;;;;6.53;2.60;;;;;;;;;;4976338;28;20254;-71
2022/07/05 01:18:25;;;;;;;2.92;2.42;;;;;;;;;;4963103;28;20232;-74
2022/07/05 01:20:51;;;;;;;3.47;2.55;;;;;;;;;;4964463;28;20238;-74
2022/07/05 01:23:22;;;;;;;2.53;2.33;;;;;;;;;;4971552;28;20214;-74
2022/07/05 01:25:50;;;;;;;3.53;2.58;;;;;;;;;;4952562;28;20226;-75
2022/07/05 01:28:18;;;;;;;2.20;2.00;;;;;;;;;;4969444;28;20237;-74
2022/07/05 01:30:43;;;;;;;3.23;2.43;;;;;;;;;;4952514;28;20245;-73
2022/07/05 01:33:09;;;;;;;2.57;2.30;;;;;;;;;;4958799;28;20231;-75
2022/07/05 01:35:34;;;;;;;2.50;2.03;;;;;;;;;;5019577;28;20312;-75
2022/07/05 01:38:00;;;;;;;2.20;2.00;;;;;;;;;;4981004;28;20218;-74
2022/07/05 01:40:27;;;;;;;2.40;2.20;;;;;;;;;;4961453;28;20221;-74
2022/07/05 01:42:55;;;;;;;2.47;2.23;;;;;;;;;;4957641;28;20237;-74
2022/07/05 01:45:39;;;;;;;2.97;2.40;;;;;;;;;;5002864;28;20332;-74
2022/07/05 01:48:14;;;;;;;4.73;2.27;;;;;;;;;;4964544;28;20225;-74
2022/07/05 01:50:42;;;;;;;2.30;2.10;;;;;;;;;;4963083;28;20622;-74
2022/07/05 01:53:14;;;;;;;2.67;1.97;;;;;;;;;;4961995;28;21113;-74
2022/07/05 01:55:46;;;;;;;2.40;2.20;;;;;;;;;;4969625;28;20223;-74
2022/07/05 01:58:12;;;;;;;2.37;2.17;;;;;;;;;;4961230;28;20320;-74
2022/07/05 02:00:42;;;;;;;3.50;2.10;;;;;;;;;;4974983;28;20224;-74
2022/07/05 02:03:10;;;;;;;2.27;2.10;;;;;;;;;;4975150;28;20228;-74
2022/07/05 02:05:38;;;;;;;4.23;2.30;;;;;;;;;;4964220;28;20317;-74
2022/07/05 02:08:11;;;;;;;3.43;2.00;;;;;;;;;;5033048;28;20224;-74
2022/07/05 02:10:38;;;;;;;3.13;2.10;;;;;;;;;;4959945;28;20320;-74
2022/07/05 02:13:04;;;;;;;3.03;2.03;;;;;;;;;;4939685;28;20218;-74
2022/07/05 02:15:37;;;;;;;2.30;2.10;;;;;;;;;;4999902;28;20276;-74
2022/07/05 02:18:06;;;;;;;2.40;2.03;;;;;;;;;;4974432;28;20229;-74
2022/07/05 02:20:35;;;;;;;2.30;2.10;;;;;;;;;;4967533;23;20234;-73
2022/07/05 02:23:00;;;;;;;2.10;1.90;;;;;;;;;;4980363;28;20659;-71
2022/07/05 02:25:28;;;;;;;3.67;2.17;;;;;;;;;;4945985;28;20303;-72
2022/07/05 02:27:56;;;;;;;2.27;2.07;;;;;;;;;;4945522;28;20771;-71
2022/07/05 02:30:25;;;;;;;3.37;2.40;;;;;;;;;;4931944;28;20230;-72
2022/07/05 02:32:54;;;;;;;4.30;2.47;;;;;;;;;;4950132;28;20705;-72
2022/07/05 02:35:20;;;;;;;2.30;2.10;;;;;;;;;;4954054;28;20226;-72
2022/07/05 02:37:50;;;;;;;3.53;2.20;;;;;;;;;;4940305;28;20233;-72
2022/07/05 02:40:15;;;;;;;2.50;2.30;;;;;;;;;;4952472;28;20654;-75
2022/07/05 02:42:45;;;;;;;3.47;2.47;;;;;;;;;;4970493;28;20282;-74
2022/07/05 02:45:16;;;;;;;4.83;2.80;;;;;;;;;;4968822;28;20276;-71
2022/07/05 02:47:45;;;;;;;2.97;2.33;;;;;;;;;;4953057;28;20619;-74
2022/07/05 02:50:13;;;;;;;2.53;2.33;;;;;;;;;;4934235;28;20267;-71
2022/07/05 02:52:43;;;;;;;2.67;2.40;;;;;;;;;;4952933;28;20316;-72
2022/07/05 02:55:11;;;;;;;3.13;2.60;;;;;;;;;;4966409;28;20233;-71
2022/07/05 02:57:41;;;;;;;3.00;2.63;;;;;;;;;;4949585;28;20234;-73
2022/07/05 03:00:17;;;;;;;5.57;2.60;;;;;;;;;;4949822;28;20219;-71
2022/07/05 03:02:45;;;;;;;5.57;2.70;;;;;;;;;;4964432;28;20247;-72
2022/07/05 03:05:16;;;;;;;2.60;2.40;;;;;;;;;;4949218;28;20210;-73
2022/07/05 03:07:49;;;;;;;4.17;2.67;;;;;;;;;;4962074;28;20291;-71
2022/07/05 03:10:20;;;;;;;4.20;2.23;;;;;;;;;;4965872;28;20222;-72
2022/07/05 03:12:47;;;;;;;3.70;2.60;;;;;;;;;;4963718;28;20645;-73
2022/07/05 03:15:16;;;;;;;3.00;2.30;;;;;;;;;;4949015;28;20244;-73
2022/07/05 03:17:42;;;;;;;4.77;2.40;;;;;;;;;;4946846;28;20313;-72
2022/07/05 03:20:11;;;;;;;3.13;2.47;;;;;;;;;;4944345;28;20225;-73
2022/07/05 03:22:41;;;;;;;2.23;2.03;;;;;;;;;;4970465;28;20344;-72
2022/07/05 03:25:09;;;;;;;4.70;2.13;;;;;;;;;;4961649;28;20700;-73
2022/07/05 03:27:37;;;;;;;3.83;2.80;;;;;;;;;;4981066;28;20226;-72
2022/07/05 03:30:04;;;;;;;3.07;2.70;;;;;;;;;;4932255;28;20222;-73
2022/07/05 03:32:37;;;;;;;4.47;2.30;;;;;;;;;;4949640;28;20238;-74
2022/07/05 03:35:06;;;;;;;3.27;2.47;;;;;;;;;;4950085;28;20230;-71
2022/07/05 03:37:34;;;;;;;3.17;2.33;;;;;;;;;;4949442;28;20230;-74
2022/07/05 03:40:03;;;;;;;2.67;2.47;;;;;;;;;;4934036;28;20225;-74
2022/07/05 03:42:29;;;;;;;4.13;2.53;;;;;;;;;;4932626;28;20503;-72
2022/07/05 03:44:55;;;;;;;3.03;2.50;;;;;;;;;;4950491;28;20226;-72
2022/07/05 03:47:25;;;;;;;4.30;2.73;;;;;;;;;;4950209;28;20226;-72
2022/07/05 03:49:53;;;;;;;3.50;2.60;;;;;;;;;;4950558;28;20232;-73
2022/07/05 03:52:21;;;;;;;3.13;2.63;;;;;;;;;;4950328;28;20230;-72
2022/07/05 03:54:49;;;;;;;2.80;2.60;;;;;;;;;;4950288;28;20230;-75
2022/07/05 03:57:17;;;;;;;2.57;2.37;;;;;;;;;;4965824;28;20321;-71
2022/07/05 03:59:43;;;;;;;2.37;2.17;;;;;;;;;;4950132;28;20234;-74
2022/07/05 04:02:12;;;;;;;3.33;2.77;;;;;;;;;;4948946;28;20642;-75
2022/07/05 04:04:40;;;;;;;3.63;2.90;;;;;;;;;;4967818;28;20222;-75
2022/07/05 04:07:08;;;;;;;3.93;2.70;;;;;;;;;;4942934;28;20269;-75
2022/07/05 04:09:37;;;;;;;4.93;2.77;;;;;;;;;;4949621;28;20221;-74
2022/07/05 04:12:04;;;;;;;3.70;2.67;;;;;;;;;;4948026;28;20265;-73
2022/07/05 04:14:36;;;;;;;5.17;2.60;;;;;;;;;;4949624;28;20270;-73
2022/07/05 04:17:02;;;;;;;2.73;2.50;;;;;;;;;;4955726;28;20712;-73
2022/07/05 04:19:30;;;;;;;3.53;2.63;;;;;;;;;;4949019;28;20225;-74
2022/07/05 04:21:56;;;;;;;2.80;2.60;;;;;;;;;;4983053;28;20313;-75
2022/07/05 04:24:21;;;;;;;2.90;2.70;;;;;;;;;;4969129;28;20229;-74
2022/07/05 04:26:47;;;;;;;3.33;2.53;;;;;;;;;;4952160;28;20222;-74
2022/07/05 04:29:15;;;;;;;2.63;2.40;;;;;;;;;;4951556;28;20696;-75
2022/07/05 04:31:43;;;;;;;3.50;2.50;;;;;;;;;;4942662;28;20238;-74
2022/07/05 04:34:14;;;;;;;3.03;2.53;;;;;;;;;;4951890;28;20244;-74
2022/07/05 04:36:41;;;;;;;2.53;2.33;;;;;;;;;;4949186;28;20222;-73
2022/07/05 04:39:07;;;;;;;4.30;2.70;;;;;;;;;;4963515;28;20229;-72
2022/07/05 04:41:35;;;;;;;3.33;3.00;;;;;;;;;;4946795;28;20230;-74
2022/07/05 04:44:05;;;;;;;3.37;2.77;;;;;;;;;;4930202;28;20608;-75
2022/07/05 04:46:31;;;;;;;3.90;2.80;;;;;;;;;;4981388;28;20234;-74
2022/07/05 04:48:57;;;;;;;4.00;2.70;;;;;;;;;;4950068;28;20214;-75
2022/07/05 04:51:29;;;;;;;2.67;2.47;;;;;;;;;;4968282;28;20295;-75
2022/07/05 04:53:55;;;;;;;3.83;2.67;;;;;;;;;;4944719;28;20220;-74
2022/07/05 04:56:21;;;;;;;3.75;2.80;;;;;;;;;;4972628;28;20226;-75
2022/07/05 04:58:47;;;;;;;3.33;2.72;;;;;;;;;;4951230;28;20218;-75
2022/07/05 05:01:12;;;;;;;3.15;2.42;;;;;;;;;;4971501;28;20230;-80
2022/07/05 05:03:40;;;;;;;5.13;2.88;;;;;;;;;;4965952;28;20230;-79
2022/07/05 05:06:06;;;;;;;4.45;2.83;;;;;;;;;;4967044;28;20230;-77
2022/07/05 05:08:34;;;;;;;3.50;2.85;;;;;;;;;;4952930;28;20229;-76
2022/07/05 05:10:59;;;;;;;3.22;2.65;;;;;;;;;;4965325;28;20238;-74
2022/07/05 05:14:07;;;;;;;3.17;2.40;;;;;;;;;;4962667;28;20235;-75
2022/07/05 05:16:34;;;;;;;4.07;2.65;;;;;;;;;;4981835;28;20233;-74
2022/07/05 05:19:00;;;;;;;2.92;2.65;;;;;;;;;;4954116;28;20264;-73
2022/07/05 05:21:28;;;;;;;3.20;2.67;;;;;;;;;;4946919;28;20283;-74
2022/07/05 05:23:54;;;;;;;3.97;2.95;;;;;;;;;;4936376;28;20710;-75
2022/07/05 05:26:22;;;;;;;3.80;3.00;;;;;;;;;;4951270;28;20230;-75
2022/07/05 05:28:47;;;;;;;4.15;3.20;;;;;;;;;;4957521;28;20294;-75
2022/07/05 05:31:13;;;;;;;3.10;2.80;;;;;;;;;;4951013;28;20691;-74
2022/07/05 05:33:39;;;;;;;3.80;3.15;;;;;;;;;;4951124;28;20271;-74
2022/07/05 05:36:05;;;;;;;4.22;3.28;;;;;;;;;;4966039;28;20321;-75
2022/07/05 05:38:33;;;;;;;5.30;3.20;;;;;;;;;;4950106;28;20236;-74
2022/07/05 05:40:59;;;;;;;3.78;3.10;;;;;;;;;;5036811;28;20237;-75
2022/07/05 05:43:27;;;;;;;3.67;3.33;;;;;;;;;;4953753;28;20226;-74
2022/07/05 05:45:54;;;;;;;3.55;2.90;;;;;;;;;;4970308;28;20237;-75
2022/07/05 05:48:20;;;;;;;4.97;3.13;;;;;;;;;;4951828;28;20238;-75
2022/07/05 05:50:51;;;;;;;3.17;2.85;;;;;;;;;;4983216;28;20263;-74
2022/07/05 05:53:17;;;;;;;2.97;2.67;;;;;;;;;;4964580;28;20234;-76
2022/07/05 05:55:45;;;;;;;3.38;2.65;;;;;;;;;;4933064;28;20231;-74
2022/07/05 05:58:12;;;;;;;2.75;2.10;;;;;;;;;;4976779;28;20301;-74
2022/07/05 06:00:41;;;;;;;2.83;2.00;;;;;;;;;;4965571;28;20242;-74
2022/07/05 06:03:10;;;;;;;2.42;1.92;;;;;;;;;;4926300;28;20233;-75
2022/07/05 06:05:39;;;;;;;3.95;1.70;;;;;;;;;;4949907;28;20227;-74
2022/07/05 06:08:05;;;;;;;2.63;1.70;;;;;;;;;;4954843;28;20622;-73
2022/07/05 06:10:31;;;;;;;4.25;1.67;;;;;;;;;;4965385;28;20234;-73
2022/07/05 06:12:59;;;;;;;2.50;1.50;;;;;;;;;;4950599;28;20238;-72
2022/07/05 06:15:25;;;;;;;2.85;1.40;;;;;;;;;;4935360;28;20280;-74
2022/07/05 06:17:50;;;;;;;4.70;1.55;;;;;;;;;;5034791;28;20227;-75
2022/07/05 06:20:17;;;;;;;3.42;1.60;;;;;;;;;;4967095;28;20209;-73
2022/07/05 06:22:45;;;;;;;5.63;1.40;;;;;;;;;;4972646;28;20329;-73
2022/07/05 06:25:44;;;;;;;3.38;1.58;;;;;;;;;;4942854;28;20232;-73
2022/07/05 06:28:09;;;;;;;2.17;1.17;;;;;;;;;;4947983;28;20282;-76
2022/07/05 06:30:38;;;;;;;2.70;1.23;;;;;;;;;;4954112;28;20246;-76
2022/07/05 06:33:04;;;;;;;2.90;1.30;;;;;;;;;;4965625;28;20234;-77
2022/07/05 06:35:30;;;;;;;1.90;1.33;;;;;;;;;;4969965;23;20232;-76
2022/07/05 06:38:06;;;;;;;2.78;1.20;;;;;;;;;;5002554;28;20223;-73
2022/07/05 06:40:33;;;;;;;2.03;1.30;;;;;;;;;;4997959;28;20327;-73
2022/07/05 06:43:02;;;;;;;3.22;1.30;;;;;;;;;;5005405;28;20224;-75
2022/07/05 06:45:39;;;;;;;1.38;0.88;;;;;;;;;;4989365;28;20565;-74
2022/07/05 06:48:06;;;;;;;2.28;1.00;;;;;;;;;;5023745;28;20231;-74
2022/07/05 06:50:36;;;;;;;2.75;1.02;;;;;;;;;;5034108;28;20244;-74
2022/07/05 06:53:19;;;;;;;3.25;1.00;;;;;;;;;;5040413;28;20285;-75
2022/07/05 06:55:48;;;;;;;1.70;0.95;;;;;;;;;;5020912;28;20220;-76
2022/07/05 06:58:14;;;;;;;1.83;1.02;;;;;;;;;;4991035;28;20211;-75
2022/07/05 07:00:44;;;;;;;3.33;0.98;;;;;;;;;;5030042;28;20219;-77
2022/07/05 07:07:03;;;;;;;2.35;0.90;;;;;;;;;;5038360;28;20227;-81
2022/07/05 07:09:35;;;;;;;2.80;0.95;;;;;;;;;;5004239;28;20237;-82
2022/07/05 07:12:03;;;;;;;1.48;0.90;;;;;;;;;;5004115;28;20231;-81
2022/07/05 07:14:31;;;;;;;1.98;1.10;;;;;;;;;;5032132;28;20282;-79
2022/07/05 07:17:04;;;;;;;3.90;1.10;;;;;;;;;;5018853;28;20228;-80
2022/07/05 07:19:30;;;;;;;1.95;0.90;;;;;;;;;;4990159;28;21106;-83
2022/07/05 07:21:56;;;;;;;3.03;1.10;;;;;;;;;;5001769;28;20234;-83
2022/07/05 07:24:39;;;;;;;4.90;1.10;;;;;;;;;;5034425;28;20637;-79
2022/07/05 07:31:09;;;;;;;1.25;0.77;;;;;;;;;;4981971;22;20241;-74
2022/07/05 07:33:43;;;;;;;1.30;0.75;;;;;;;;;;5030883;28;20236;-77
2022/07/05 07:36:41;;;;;;;1.95;0.80;;;;;;;;;;5045240;28;20714;-72
2022/07/05 07:39:08;;;;;;;2.05;0.80;;;;;;;;;;5024014;28;20233;-75
2022/07/05 07:41:36;;;;;;;1.35;0.80;;;;;;;;;;5037659;28;20300;-74
2022/07/05 07:44:03;;;;;;;3.45;0.90;;;;;;;;;;5080910;22;20695;-81
2022/07/05 07:46:29;;;;;;;2.05;1.05;;;;;;;;;;5043649;28;20249;-83
2022/07/05 07:48:58;;;;;;;3.03;0.93;;;;;;;;;;5049098;28;20610;-82
2022/07/05 07:52:10;;;;;;;1.48;0.90;;;;;;;;;;5042716;28;20739;-82
2022/07/05 07:54:36;;;;;;;1.30;0.80;;;;;;;;;;5049233;28;20243;-79
2022/07/05 07:57:04;;;;;;;2.70;1.10;;;;;;;;;;5041964;28;20228;-81
2022/07/05 07:59:35;;;;;;;1.52;0.82;;;;;;;;;;5065040;23;20260;-75
2022/07/05 08:02:04;;;;;;;2.45;0.65;;;;;;;;;;5060255;28;20300;-73
2022/07/05 08:04:34;;;;;;;3.90;1.10;;;;;;;;;;5054337;28;20229;-76
2022/07/05 08:06:59;;;;;;;1.33;0.90;;;;;;;;;;5072258;28;20230;-73
2022/07/05 08:09:25;;;;;;;1.25;1.00;;;;;;;;;;5021988;28;20792;-74
2022/07/05 08:11:51;;;;;;;1.08;0.70;;;;;;;;;;5032021;28;20272;-75
2022/07/05 08:14:17;;;;;;;2.20;0.80;;;;;;;;;;5011307;28;20758;-73
2022/07/05 08:16:42;;;;;;;1.98;0.85;;;;;;;;;;5050932;28;20656;-74
2022/07/05 08:21:55;;;;;;;0.63;0.60;;;;;;;;;;5053652;28;20237;-72
2022/07/05 08:24:21;;;;;;;1.80;0.77;;;;;;;;;;5016000;28;20272;-74
2022/07/05 08:26:46;;;;;;;3.50;0.80;;;;;;;;;;5049626;28;20234;-70
2022/07/05 08:29:16;;;;;;;2.58;0.70;;;;;;;;;;5048847;28;20213;-74
2022/07/05 08:31:44;;;;;;;1.00;0.70;;;;;;;;;;5048271;28;20721;-73
2022/07/05 08:34:09;;;;;;;1.23;0.73;;;;;;;;;;5032183;28;20829;-74
2022/07/05 08:36:35;;;;;;;3.40;0.70;;;;;;;;;;5012325;28;20219;-72
2022/07/05 08:39:01;;;;;;;1.73;0.98;;;;;;;;;;5050954;28;20288;-73
2022/07/05 08:41:26;;;;;;;2.28;0.80;;;;;;;;;;5034727;28;20450;-71
2022/07/05 08:43:54;;;;;;;1.10;0.63;;;;;;;;;;5049946;28;20232;-71
2022/07/05 08:46:20;;;;;;;3.22;0.70;;;;;;;;;;5046173;28;20234;-71
2022/07/05 08:48:49;;;;;;;1.10;0.50;;;;;;;;;;5033110;28;20226;-72
2022/07/05 08:51:16;;;;;;;3.03;0.88;;;;;;;;;;5046742;28;20257;-72
2022/07/05 08:53:45;;;;;;;0.88;0.50;;;;;;;;;;5046936;28;20246;-73
2022/07/05 08:56:13;;;;;;;0.50;0.50;;;;;;;;;;5052444;28;20309;-73
2022/07/05 08:58:42;;;;;;;0.82;0.50;;;;;;;;;;5033149;28;20247;-74
2022/07/05 09:01:11;;;;;;;1.20;0.70;;;;;;;;;;5047755;28;20231;-74
2022/07/05 09:03:42;;;;;;;2.25;0.65;;;;;;;;;;5036556;28;20226;-73
2022/07/05 09:06:09;;;;;;;1.85;0.70;;;;;;;;;;5047041;28;20223;-73
2022/07/05 09:08:40;;;;;;;1.48;0.75;;;;;;;;;;5016156;28;20214;-72
2022/07/05 09:11:10;;;;;;;1.88;0.70;;;;;;;;;;5067342;28;20222;-72
2022/07/05 09:13:37;;;;;;;2.00;0.85;;;;;;;;;;5016161;28;20227;-73
2022/07/05 09:16:03;;;;;;;0.90;0.75;;;;;;;;;;5046161;28;20218;-72
2022/07/05 09:18:50;;;;;;;1.65;0.68;;;;;;;;;;5036975;28;20231;-71
2022/07/05 09:21:22;;;;;;;2.25;0.63;;;;;;;;;;5027636;28;20219;-72
2022/07/05 09:23:55;;;;;;;0.77;0.60;;;;;;;;;;5031970;28;20223;-71
2022/07/05 09:26:24;;;;;;;2.83;0.73;;;;;;;;;;5064266;28;20653;-72
2022/07/05 09:28:56;;;;;;;1.88;0.70;;;;;;;;;;5016007;28;20245;-73
2022/07/05 09:31:37;;;;;;;3.83;0.60;;;;;;;;;;5065100;28;20243;-72
2022/07/05 09:34:07;;;;;;;1.25;0.80;;;;;;;;;;5032523;28;20230;-76
2022/07/05 09:36:58;;;;;;;0.93;0.60;;;;;;;;;;5052946;28;20286;-71
2022/07/05 09:39:29;;;;;;;1.27;0.60;;;;;;;;;;5070104;28;20223;-72
2022/07/05 09:42:11;;;;;;;1.40;0.50;;;;;;;;;;5069349;28;20733;-72
2022/07/05 09:44:55;;;;;;;0.70;0.70;;;;;;;;;;5069601;28;20226;-73
2022/07/05 09:47:24;;;;;;;0.68;0.52;;;;;;;;;;5044686;28;20258;-74
2022/07/05 09:50:03;;;;;;;1.58;0.50;;;;;;;;;;5051967;28;20215;-73
2022/07/05 09:52:37;;;;;;;1.08;0.70;;;;;;;;;;5050397;28;20226;-72
2022/07/05 09:55:05;;;;;;;2.33;0.77;;;;;;;;;;5070710;28;20241;-72
2022/07/05 09:57:31;;;;;;;0.75;0.60;;;;;;;;;;5050386;28;20592;-72
2022/07/05 10:00:01;;;;;;;3.22;0.60;;;;;;;;;;5026561;28;20226;-73
2022/07/05 10:02:39;;;;;;;2.28;0.52;;;;;;;;;;5066932;28;21172;-77
2022/07/05 10:05:14;;;;;;;0.55;0.40;;;;;;;;;;5049308;28;20233;-73
2022/07/05 10:07:45;;;;;;;0.95;0.50;;;;;;;;;;5056557;28;20227;-75
2022/07/05 10:10:17;;;;;;;2.88;0.70;;;;;;;;;;5051025;28;20616;-74
2022/07/05 10:12:56;;;;;;;1.67;0.60;;;;;;;;;;5033936;28;20219;-74
2022/07/05 10:15:26;;;;;;;1.05;0.60;;;;;;;;;;5035294;28;20309;-73
2022/07/05 10:18:07;;;;;;;1.45;0.73;;;;;;;;;;5034874;28;21155;-72
2022/07/05 10:20:44;;;;;;;0.57;0.40;;;;;;;;;;5041851;28;20218;-73
2022/07/05 10:23:13;;;;;;;2.00;0.60;;;;;;;;;;5032579;28;20222;-73
2022/07/05 10:25:42;;;;;;;0.85;0.43;;;;;;;;;;5067055;28;20222;-74
2022/07/05 10:28:09;;;;;;;1.23;0.45;;;;;;;;;;5052345;28;20211;-72
2022/07/05 10:30:37;;;;;;;0.75;0.50;;;;;;;;;;5026483;28;20317;-73
2022/07/05 10:33:04;;;;;;;1.23;0.68;;;;;;;;;;5032021;28;20251;-72
2022/07/05 10:35:32;;;;;;;0.95;0.50;;;;;;;;;;5033660;28;20289;-72
2022/07/05 10:37:58;;;;;;;0.88;0.60;;;;;;;;;;5035766;28;20598;-72
2022/07/05 10:40:24;;;;;;;1.63;0.50;;;;;;;;;;5050080;28;20269;-72
2022/07/05 10:43:01;;;;;;;1.33;0.45;;;;;;;;;;5034420;28;20650;-70
2022/07/05 10:45:38;;;;;;;0.63;0.40;;;;;;;;;;5068143;28;20226;-70
2022/07/05 10:48:10;;;;;;;2.13;0.60;;;;;;;;;;5029236;28;20309;-72
2022/07/05 10:50:45;;;;;;;2.10;0.68;;;;;;;;;;5046578;28;20763;-71
2022/07/05 10:53:12;;;;;;;1.60;0.63;;;;;;;;;;5039488;28;20222;-71
2022/07/05 10:56:11;;;;;;;0.95;0.60;;;;;;;;;;5018364;28;20753;-70
2022/07/05 10:58:39;;;;;;;1.77;0.60;;;;;;;;;;5067985;28;20230;-70
2022/07/05 11:01:20;;;;;;;1.02;0.50;;;;;;;;;;5019344;28;20302;-72
2022/07/05 11:03:49;;;;;;;1.58;0.50;;;;;;;;;;5052701;28;20748;-70
2022/07/05 11:06:24;;;;;;;0.30;0.30;;;;;;;;;;5034278;28;20215;-71
2022/07/05 11:09:07;;;;;;;0.80;0.40;;;;;;;;;;5050088;28;20247;-70
2022/07/05 11:11:34;;;;;;;0.80;0.40;;;;;;;;;;5065248;28;20245;-70
2022/07/05 11:14:04;;;;;;;1.27;0.68;;;;;;;;;;5008248;28;20219;-70
2022/07/05 11:16:30;;;;;;;1.48;0.50;;;;;;;;;;5009975;28;20310;-72
2022/07/05 11:19:08;;;;;;;2.38;0.50;;;;;;;;;;5026726;28;20247;-71
2022/07/05 11:21:35;;;;;;;0.47;0.40;;;;;;;;;;5032757;28;20819;-72
2022/07/05 11:24:25;;;;;;;2.63;0.63;;;;;;;;;;5016843;28;20295;-72
2022/07/05 11:26:53;;;;;;;1.15;0.60;;;;;;;;;;5008055;28;20605;-71
2022/07/05 11:29:41;;;;;;;2.10;0.60;;;;;;;;;;5048657;28;20215;-72
2022/07/05 11:32:07;;;;;;;4.78;1.30;;;;;;;;;;5063230;28;20230;-71
2022/07/05 11:34:33;;;;;;;3.20;0.88;;;;;;;;;;5039411;28;20227;-71
2022/07/05 11:37:26;;;;;;;3.40;0.77;;;;;;;;;;5043321;28;20362;-72
2022/07/05 11:40:10;;;;;;;3.83;0.98;;;;;;;;;;5065997;28;20226;-71
2022/07/05 11:42:45;;;;;;;1.95;0.50;;;;;;;;;;5048037;28;20703;-72
2022/07/05 11:45:11;;;;;;;1.88;0.60;;;;;;;;;;5031023;28;20714;-73
2022/07/05 11:47:36;;;;;;;1.33;0.60;;;;;;;;;;5054103;28;20309;-73
2022/07/05 11:50:05;;;;;;;1.45;0.70;;;;;;;;;;5035491;28;20657;-73
2022/07/05 11:52:32;;;;;;;0.80;0.60;;;;;;;;;;4993265;28;20231;-74
2022/07/05 11:54:58;;;;;;;1.77;0.60;;;;;;;;;;5045724;28;20220;-72
2022/07/05 11:57:23;;;;;;;0.85;0.60;;;;;;;;;;5059611;28;20259;-71
2022/07/05 11:59:49;;;;;;;1.98;0.60;;;;;;;;;;5037225;28;20226;-72
2022/07/05 12:02:15;;;;;;;0.80;0.70;;;;;;;;;;5039869;28;20669;-73
2022/07/05 12:04:40;;;;;;;2.67;0.50;;;;;;;;;;5050341;28;20314;-73
2022/07/05 12:07:06;;;;;;;1.13;0.60;;;;;;;;;;5033062;28;20288;-73
2022/07/05 12:15:06;;;;;;;1.27;0.70;;;;;;;;;;5039538;28;20230;-72
2022/07/05 12:17:33;;;;;;;0.93;0.80;;;;;;;;;;5050663;28;20223;-76
2022/07/05 12:19:59;;;;;;;0.70;0.52;;;;;;;;;;5042674;28;20231;-71
2022/07/05 12:22:43;;;;;;;1.85;0.73;;;;;;;;;;5031953;28;20763;-72
2022/07/05 12:25:19;;;;;;;1.75;0.70;;;;;;;;;;5049802;28;20229;-75
2022/07/05 12:27:50;;;;;;;1.38;0.60;;;;;;;;;;5034629;28;20222;-73
2022/07/05 12:30:16;;;;;;;0.50;0.50;;;;;;;;;;5033769;28;20222;-73
2022/07/05 12:32:57;;;;;;;0.98;0.57;;;;;;;;;;5047382;28;20268;-73
2022/07/05 12:35:36;;;;;;;3.10;0.80;;;;;;;;;;5065293;28;20228;-73
2022/07/05 12:38:14;;;;;;;1.25;0.60;;;;;;;;;;5065911;28;20218;-74
2022/07/05 12:40:41;;;;;;;0.68;0.68;;;;;;;;;;5034588;28;20708;-73
2022/07/05 12:43:17;;;;;;;2.47;0.70;;;;;;;;;;5032211;28;20231;-72
2022/07/05 12:46:09;;;;;;;1.08;0.70;;;;;;;;;;5039156;28;20231;-74
2022/07/05 12:48:35;;;;;;;1.58;0.70;;;;;;;;;;5050394;28;20253;-73
2022/07/05 12:51:03;;;;;;;0.93;0.80;;;;;;;;;;5065853;28;20238;-72
2022/07/05 12:58:58;;;;;;;1.63;0.70;;;;;;;;;;5050462;28;20257;-73
2022/07/05 13:01:39;;;;;;;2.63;0.80;;;;;;;;;;5065575;28;20242;-73
2022/07/05 13:04:14;;;;;;;2.38;0.90;;;;;;;;;;5063257;28;20207;-72
2022/07/05 13:06:57;;;;;;;2.28;0.70;;;;;;;;;;5036781;28;20217;-72
2022/07/05 13:09:32;;;;;;;1.63;0.73;;;;;;;;;;5065014;28;20227;-73
2022/07/05 13:12:24;;;;;;;1.13;0.60;;;;;;;;;;5065605;28;20241;-72
2022/07/05 13:14:51;;;;;;;2.30;0.80;;;;;;;;;;5065655;28;20893;-71
2022/07/05 13:17:23;;;;;;;2.88;0.73;;;;;;;;;;5029323;28;20207;-72
2022/07/05 13:19:51;;;;;;;2.25;0.80;;;;;;;;;;5029746;28;20667;-72
2022/07/05 13:22:19;;;;;;;1.63;0.70;;;;;;;;;;5069487;28;20708;-73
2022/07/05 13:24:45;;;;;;;1.70;0.90;;;;;;;;;;5052045;28;20233;-74
2022/07/05 13:27:11;;;;;;;1.73;0.88;;;;;;;;;;5035200;28;20222;-73
2022/07/05 13:29:37;;;;;;;2.95;0.90;;;;;;;;;;5031502;28;20234;-72
2022/07/05 13:32:03;;;;;;;1.00;0.82;;;;;;;;;;5045795;28;20226;-72
2022/07/05 13:34:29;;;;;;;2.28;1.00;;;;;;;;;;5070482;28;20231;-72
2022/07/05 13:37:01;;;;;;;4.32;0.90;;;;;;;;;;5045218;28;20253;-75
2022/07/05 13:39:29;;;;;;;2.63;0.85;;;;;;;;;;5053122;28;20329;-71
2022/07/05 13:41:55;;;;;;;2.75;0.90;;;;;;;;;;5033882;28;20223;-73
2022/07/05 13:44:23;;;;;;;0.88;0.73;;;;;;;;;;5035443;28;20219;-71
2022/07/05 13:46:49;;;;;;;1.38;0.60;;;;;;;;;;5053673;28;20600;-72
2022/07/05 13:49:15;;;;;;;1.73;0.75;;;;;;;;;;5069862;28;20214;-72
2022/07/05 13:51:43;;;;;;;1.65;0.80;;;;;;;;;;5051812;28;20234;-73
2022/07/05 13:54:08;;;;;;;2.75;0.80;;;;;;;;;;5037086;28;20685;-72
2022/07/05 13:56:37;;;;;;;1.67;0.70;;;;;;;;;;5020717;28;20237;-72
2022/07/05 13:59:03;;;;;;;1.05;0.80;;;;;;;;;;5031714;28;20854;-71
2022/07/05 14:01:28;;;;;;;2.17;0.80;;;;;;;;;;5035583;28;20225;-69
2022/07/05 14:04:01;;;;;;;1.33;0.70;;;;;;;;;;5069959;28;20223;-71
2022/07/05 14:06:27;;;;;;;2.03;0.80;;;;;;;;;;5053514;28;20735;-71
2022/07/05 14:08:56;;;;;;;1.70;0.70;;;;;;;;;;5019842;28;20257;-72
2022/07/05 14:11:27;;;;;;;1.00;0.70;;;;;;;;;;5042670;28;20242;-72
2022/07/05 14:13:57;;;;;;;2.38;0.82;;;;;;;;;;5026615;28;20743;-72
2022/07/05 14:16:23;;;;;;;1.42;0.70;;;;;;;;;;5051624;28;20268;-72
2022/07/05 14:18:49;;;;;;;1.45;0.70;;;;;;;;;;5051436;28;20671;-72
2022/07/05 14:21:17;;;;;;;1.98;0.95;;;;;;;;;;5067011;28;20257;-71
2022/07/05 14:23:50;;;;;;;1.38;0.75;;;;;;;;;;5013304;28;20746;-71
2022/07/05 14:26:18;;;;;;;1.77;0.88;;;;;;;;;;5033463;28;20664;-73
2022/07/05 14:28:44;;;;;;;1.10;0.90;;;;;;;;;;5020180;28;20249;-72
2022/07/05 14:31:10;;;;;;;1.80;0.80;;;;;;;;;;5002259;28;20607;-72
2022/07/05 14:33:39;;;;;;;5.25;0.80;;;;;;;;;;5034803;28;20785;-71
2022/07/05 14:36:05;;;;;;;1.23;0.80;;;;;;;;;;5018901;28;20700;-72
2022/07/05 14:38:31;;;;;;;2.40;1.00;;;;;;;;;;5051836;28;20219;-72
2022/07/05 14:40:56;;;;;;;6.13;0.90;;;;;;;;;;5069135;28;20206;-71
2022/07/05 14:43:22;;;;;;;1.83;0.90;;;;;;;;;;5023912;28;20348;-71
2022/07/05 14:45:48;;;;;;;2.63;0.90;;;;;;;;;;5051774;28;20222;-71
2022/07/05 14:48:13;;;;;;;1.38;0.70;;;;;;;;;;5031488;28;20680;-73
2022/07/05 14:50:41;;;;;;;2.53;1.10;;;;;;;;;;5034866;28;20575;-73
2022/07/05 14:53:09;;;;;;;1.77;0.70;;;;;;;;;;5050284;28;20229;-72
2022/07/05 14:55:35;;;;;;;2.10;0.88;;;;;;;;;;5029801;28;20603;-72
2022/07/05 14:58:03;;;;;;;1.73;0.70;;;;;;;;;;5044668;28;20218;-72
2022/07/05 15:00:29;;;;;;;1.50;0.80;;;;;;;;;;5053353;28;20222;-72
2022/07/05 15:02:57;;;;;;;1.88;0.90;;;;;;;;;;5063970;28;20231;-71
2022/07/05 15:05:23;;;;;;;1.75;0.70;;;;;;;;;;5052773;28;20254;-74
2022/07/05 15:07:48;;;;;;;1.92;0.80;;;;;;;;;;5051747;28;20228;-72
2022/07/05 15:10:17;;;;;;;2.55;0.95;;;;;;;;;;5029358;28;20214;-73
2022/07/05 15:12:42;;;;;;;1.38;0.80;;;;;;;;;;5037463;28;20230;-73
2022/07/05 15:15:13;;;;;;;4.40;1.08;;;;;;;;;;5067056;28;20218;-71
2022/07/05 15:17:39;;;;;;;3.15;0.82;;;;;;;;;;5034888;28;20230;-72
2022/07/05 15:20:05;;;;;;;1.73;0.93;;;;;;;;;;5034429;28;20307;-72